createdAt,value
2023-05-16T00:01:01.322Z,31.20
2023-05-16T00:03:28.061Z,27.10
2023-05-16T00:05:55.949Z,28.92
2023-05-16T00:08:22.846Z,27.25
2023-05-16T00:10:49.453Z,32.42
2023-05-16T00:13:16.203Z,31.92
2023-05-16T00:15:43.920Z,28.00
2023-05-16T00:18:14.725Z,26.70
2023-05-16T00:20:41.737Z,31.67
2023-05-16T00:23:08.352Z,28.80
2023-05-16T00:25:34.974Z,29.10
2023-05-16T00:28:01.593Z,28.08
2023-05-16T00:30:28.412Z,28.98
2023-05-16T00:32:55.852Z,29.30
2023-05-16T00:35:22.516Z,33.55
2023-05-16T00:37:49.744Z,31.35
2023-05-16T00:40:16.718Z,27.70
2023-05-16T00:42:43.378Z,34.20
2023-05-16T00:45:10.404Z,28.30
2023-05-16T00:47:37.143Z,31.77
2023-05-16T00:50:04.136Z,37.35
2023-05-16T00:52:32.982Z,31.88
2023-05-16T00:54:59.616Z,35.45
2023-05-16T00:57:26.231Z,27.60
2023-05-16T00:59:52.840Z,32.47
2023-05-16T01:02:20.039Z,31.17
2023-05-16T01:04:48.294Z,32.33
2023-05-16T01:07:14.924Z,28.58
2023-05-16T01:09:41.754Z,31.83
2023-05-16T01:12:42.414Z,31.15
2023-05-16T01:15:13.543Z,26.42
2023-05-16T01:18:17.622Z,27.90
2023-05-16T01:20:52.126Z,29.20
2023-05-16T01:23:33.380Z,30.85
2023-05-16T01:26:22.768Z,31.08
2023-05-16T01:28:50.710Z,30.33
2023-05-16T01:31:17.485Z,26.55
2023-05-16T01:33:44.207Z,31.63
2023-05-16T01:37:02.965Z,29.17
2023-05-16T01:39:42.307Z,29.48
2023-05-16T01:42:10.950Z,28.85
2023-05-16T01:44:46.059Z,25.83
2023-05-16T01:47:13.829Z,31.08
2023-05-16T01:50:05.893Z,31.25
2023-05-16T01:52:40.892Z,30.45
2023-05-16T01:55:16.506Z,31.42
2023-05-16T01:57:43.444Z,30.25
2023-05-16T02:00:10.576Z,28.35
2023-05-16T02:02:37.268Z,28.35
2023-05-16T02:05:03.950Z,28.92
2023-05-16T02:07:30.594Z,35.03
2023-05-16T02:09:57.187Z,28.75
2023-05-16T02:12:24.892Z,29.52
2023-05-16T02:14:51.508Z,30.92
2023-05-16T02:17:18.131Z,30.30
2023-05-16T02:19:44.760Z,28.08
2023-05-16T02:22:11.881Z,31.20
2023-05-16T02:24:38.466Z,32.55
2023-05-16T02:27:05.352Z,27.38
2023-05-16T02:29:32.025Z,32.25
2023-05-16T02:31:58.626Z,31.60
2023-05-16T02:34:25.240Z,35.28
2023-05-16T02:36:51.868Z,30.65
2023-05-16T02:39:18.710Z,32.97
2023-05-16T02:41:45.313Z,34.38
2023-05-16T02:44:11.939Z,33.75
2023-05-16T02:46:38.590Z,27.45
2023-05-16T02:49:05.703Z,29.55
2023-05-16T02:51:32.328Z,28.38
2023-05-16T02:54:01.010Z,32.33
2023-05-16T02:56:28.044Z,27.75
2023-05-16T02:58:54.925Z,29.17
2023-05-16T03:01:21.727Z,32.58
2023-05-16T03:03:48.462Z,30.23
2023-05-16T03:06:15.368Z,27.33
2023-05-16T03:08:41.977Z,30.42
2023-05-16T03:11:08.566Z,31.20
2023-05-16T03:13:35.173Z,30.98
2023-05-16T03:16:02.110Z,38.00
2023-05-16T03:18:28.915Z,34.50
2023-05-16T03:20:56.163Z,36.35
2023-05-16T03:23:22.786Z,38.33
2023-05-16T03:25:49.406Z,38.20
2023-05-16T03:28:16.746Z,34.03
2023-05-16T03:30:43.406Z,30.23
2023-05-16T03:33:10.102Z,35.58
2023-05-16T03:35:36.916Z,30.00
2023-05-16T03:38:03.622Z,33.17
2023-05-16T03:40:30.329Z,27.00
2023-05-16T03:42:56.987Z,25.55
2023-05-16T03:45:23.607Z,25.15
2023-05-16T03:47:50.867Z,26.67
2023-05-16T03:50:17.785Z,27.15
2023-05-16T03:52:44.474Z,25.10
2023-05-16T03:55:11.411Z,24.25
2023-05-16T03:57:42.089Z,24.88
2023-05-16T04:00:12.309Z,24.50
2023-05-16T04:02:40.975Z,23.90
2023-05-16T04:05:08.887Z,25.75
2023-05-16T04:07:35.899Z,23.35
2023-05-16T04:10:02.855Z,21.25
2023-05-16T04:12:29.445Z,21.30
2023-05-16T04:14:56.104Z,25.55
2023-05-16T04:17:22.894Z,19.38
2023-05-16T04:19:49.551Z,23.55
2023-05-16T04:22:16.707Z,24.08
2023-05-16T04:24:43.378Z,19.27
2023-05-16T04:27:09.996Z,21.92
2023-05-16T04:29:36.656Z,21.42
2023-05-16T04:32:03.726Z,19.27
2023-05-16T04:34:30.773Z,18.92
2023-05-16T04:36:57.882Z,17.40
2023-05-16T04:39:24.481Z,18.67
2023-05-16T04:41:51.570Z,17.77
2023-05-16T04:44:18.200Z,16.75
2023-05-16T04:46:44.885Z,19.50
2023-05-16T04:49:11.531Z,15.60
2023-05-16T04:51:38.166Z,14.23
2023-05-16T04:54:04.851Z,13.02
2023-05-16T04:56:31.929Z,14.27
2023-05-16T04:58:58.548Z,16.92
2023-05-16T05:01:25.239Z,15.70
2023-05-16T05:03:52.212Z,15.93
2023-05-16T05:06:18.972Z,14.95
2023-05-16T05:08:45.584Z,15.82
2023-05-16T05:11:12.201Z,11.38
2023-05-16T05:13:38.852Z,13.90
2023-05-16T05:16:06.025Z,13.70
2023-05-16T05:18:32.884Z,15.15
2023-05-16T05:20:59.913Z,11.30
2023-05-16T05:23:26.571Z,13.05
2023-05-16T05:25:53.183Z,11.80
2023-05-16T05:28:19.806Z,8.60
2023-05-16T05:30:48.300Z,9.68
2023-05-16T05:33:16.526Z,13.88
2023-05-16T05:35:43.138Z,10.95
2023-05-16T05:38:09.768Z,9.77
2023-05-16T05:40:36.353Z,7.90
2023-05-16T05:43:02.992Z,8.07
2023-05-16T05:45:29.824Z,12.77
2023-05-16T05:47:56.886Z,12.55
2023-05-16T05:50:23.799Z,18.35
2023-05-16T05:52:50.457Z,11.32
2023-05-16T05:55:17.114Z,10.88
2023-05-16T05:57:43.736Z,9.07
2023-05-16T06:00:11.502Z,10.45
2023-05-16T06:02:38.308Z,13.18
2023-05-16T06:05:05.349Z,8.65
2023-05-16T06:07:31.987Z,6.90
2023-05-16T06:09:58.640Z,11.63
2023-05-16T06:12:25.431Z,9.95
2023-05-16T06:14:52.051Z,8.57
2023-05-16T06:17:18.810Z,12.55
2023-05-16T06:19:45.457Z,6.95
2023-05-16T06:22:12.170Z,13.10
2023-05-16T06:24:38.782Z,17.20
2023-05-16T06:27:05.564Z,7.93
2023-05-16T06:29:32.212Z,14.15
2023-05-16T06:31:58.950Z,11.75
2023-05-16T06:34:28.220Z,17.98
2023-05-16T06:36:55.131Z,17.73
2023-05-16T06:39:21.754Z,10.10
2023-05-16T06:41:48.584Z,13.98
2023-05-16T06:44:15.645Z,14.20
2023-05-16T06:46:42.325Z,9.40
2023-05-16T06:49:08.998Z,9.82
2023-05-16T06:51:35.640Z,9.57
2023-05-16T06:54:04.143Z,19.55
2023-05-16T06:56:31.560Z,9.40
2023-05-16T06:58:58.331Z,13.50
2023-05-16T07:01:25.565Z,12.48
2023-05-16T07:03:52.469Z,20.02
2023-05-16T07:06:19.200Z,16.80
2023-05-16T07:08:46.124Z,16.17
2023-05-16T07:11:12.923Z,18.45
2023-05-16T07:13:39.558Z,16.20
2023-05-16T07:16:07.751Z,18.88
2023-05-16T07:18:34.447Z,13.65
2023-05-16T07:21:01.233Z,18.98
2023-05-16T07:23:27.855Z,15.35
2023-05-16T07:25:54.528Z,13.43
2023-05-16T07:28:22.122Z,12.52
2023-05-16T07:30:48.786Z,25.15
2023-05-16T07:33:15.455Z,18.83
2023-05-16T07:35:42.288Z,11.48
2023-05-16T07:38:09.121Z,13.35
2023-05-16T07:40:35.775Z,17.25
2023-05-16T07:43:02.979Z,21.05
2023-05-16T07:45:29.998Z,20.35
2023-05-16T07:47:57.045Z,19.58
2023-05-16T07:50:23.950Z,22.25
2023-05-16T07:52:50.703Z,17.73
2023-05-16T07:55:17.368Z,18.83
2023-05-16T07:57:44.018Z,16.48
2023-05-16T08:00:11.221Z,16.40
2023-05-16T08:02:38.008Z,14.82
2023-05-16T08:05:05.892Z,12.52
2023-05-16T08:07:32.763Z,20.70
2023-05-16T08:09:59.523Z,16.42
2023-05-16T08:12:27.290Z,18.85
2023-05-16T08:14:53.939Z,15.20
2023-05-16T08:17:20.748Z,18.83
2023-05-16T08:19:47.401Z,20.73
2023-05-16T08:22:14.062Z,9.65
2023-05-16T08:24:41.202Z,17.27
2023-05-16T08:27:08.756Z,18.48
2023-05-16T08:29:35.626Z,18.45
2023-05-16T08:32:02.346Z,13.57
2023-05-16T08:34:31.857Z,14.05
2023-05-16T08:36:58.524Z,13.48
2023-05-16T08:39:28.794Z,13.02
2023-05-16T08:41:55.533Z,18.63
2023-05-16T08:44:22.299Z,12.82
2023-05-16T08:46:51.688Z,12.55
2023-05-16T08:49:18.708Z,13.38
2023-05-16T08:51:46.966Z,11.65
2023-05-16T08:54:14.513Z,12.93
2023-05-16T08:56:44.845Z,22.17
2023-05-16T08:59:12.315Z,13.93
2023-05-16T09:01:39.041Z,13.93
2023-05-16T09:04:07.250Z,12.05
2023-05-16T09:06:34.012Z,18.63
2023-05-16T09:09:00.720Z,12.00
2023-05-16T09:11:27.351Z,18.40
2023-05-16T09:13:54.319Z,13.02
2023-05-16T09:16:21.461Z,12.10
2023-05-16T09:18:58.223Z,12.85
2023-05-16T09:21:27.892Z,19.92
2023-05-16T09:23:54.963Z,10.52
2023-05-16T09:26:22.677Z,9.57
2023-05-16T09:28:49.336Z,13.63
2023-05-16T09:31:23.710Z,12.20
2023-05-16T09:33:50.693Z,12.20
2023-05-16T09:36:17.460Z,10.10
2023-05-16T09:38:44.430Z,7.85
2023-05-16T09:41:11.188Z,8.57
2023-05-16T09:43:41.971Z,11.63
2023-05-16T09:46:08.960Z,10.88
2023-05-16T09:48:36.293Z,9.90
2023-05-16T09:51:05.693Z,10.35
2023-05-16T09:53:33.199Z,16.85
2023-05-16T09:56:04.004Z,10.35
2023-05-16T09:58:35.293Z,14.02
2023-05-16T10:01:02.371Z,14.68
2023-05-16T10:03:29.248Z,10.25
2023-05-16T10:05:56.087Z,14.10
2023-05-16T10:08:24.109Z,11.88
2023-05-16T10:10:52.486Z,11.70
2023-05-16T10:13:23.159Z,9.40
2023-05-16T10:15:50.527Z,10.50
2023-05-16T10:18:18.376Z,7.82
2023-05-16T10:20:46.303Z,12.38
2023-05-16T10:23:16.814Z,12.27
2023-05-16T10:25:44.716Z,10.32
2023-05-16T10:28:11.463Z,13.35
2023-05-16T10:30:39.979Z,11.05
2023-05-16T10:33:06.960Z,17.35
2023-05-16T10:35:34.849Z,11.50
2023-05-16T10:38:01.492Z,9.10
2023-05-16T10:40:28.807Z,9.13
2023-05-16T10:42:59.474Z,8.45
2023-05-16T10:45:26.441Z,16.02
2023-05-16T10:48:00.893Z,9.32
2023-05-16T10:53:37.543Z,9.95
2023-05-16T10:56:04.134Z,8.80
2023-05-16T10:58:36.472Z,7.38
2023-05-16T11:01:35.414Z,10.50
2023-05-16T11:04:06.459Z,8.10
2023-05-16T11:06:43.597Z,9.13
2023-05-16T11:09:13.735Z,15.90
2023-05-16T11:11:48.667Z,7.70
2023-05-16T11:14:32.634Z,16.00
2023-05-16T11:17:02.674Z,6.63
2023-05-16T11:19:33.750Z,5.55
2023-05-16T11:22:18.862Z,24.38
2023-05-16T11:25:03.197Z,10.10
2023-05-16T11:27:33.320Z,5.00
2023-05-16T11:30:03.651Z,11.52
2023-05-16T11:32:30.718Z,5.78
2023-05-16T11:34:57.378Z,11.95
2023-05-16T11:37:24.053Z,10.38
2023-05-16T11:39:50.849Z,12.07
2023-05-16T11:42:18.096Z,4.18
2023-05-16T11:44:45.282Z,8.18
2023-05-16T11:47:12.723Z,8.27
2023-05-16T11:49:39.514Z,8.32
2023-05-16T11:52:06.373Z,8.32
2023-05-16T11:54:34.597Z,11.93
2023-05-16T11:57:02.046Z,6.88
2023-05-16T11:59:28.764Z,6.38
2023-05-16T12:01:55.490Z,8.40
2023-05-16T12:04:23.066Z,8.93
2023-05-16T12:06:58.672Z,8.70
2023-05-16T12:09:25.438Z,6.25
2023-05-16T12:11:52.077Z,4.70
2023-05-16T12:14:18.741Z,6.35
2023-05-16T12:16:46.509Z,7.80
2023-05-16T12:19:14.041Z,5.10
2023-05-16T12:21:40.913Z,10.75
2023-05-16T12:24:11.464Z,10.60
2023-05-16T12:26:39.808Z,12.40
2023-05-16T12:29:06.813Z,6.05
2023-05-16T12:31:36.686Z,9.63
2023-05-16T12:34:03.429Z,5.07
2023-05-16T12:36:34.744Z,8.82
2023-05-16T12:39:03.889Z,6.65
2023-05-16T12:41:31.149Z,8.05
2023-05-16T12:44:11.974Z,4.63
2023-05-16T12:46:45.845Z,9.77
2023-05-16T12:49:13.561Z,8.02
2023-05-16T12:51:40.990Z,7.57
2023-05-16T12:54:10.354Z,6.60
2023-05-16T12:56:38.355Z,9.57
2023-05-16T12:59:05.159Z,11.60
2023-05-16T13:01:34.561Z,7.35
2023-05-16T13:04:01.471Z,7.90
2023-05-16T13:06:28.899Z,9.25
2023-05-16T13:08:57.684Z,13.20
2023-05-16T13:11:25.048Z,6.18
2023-05-16T13:13:52.339Z,12.07
2023-05-16T13:16:19.163Z,6.55
2023-05-16T13:18:46.026Z,9.85
2023-05-16T13:21:12.744Z,6.93
2023-05-16T13:23:39.400Z,5.70
2023-05-16T13:26:06.051Z,7.50
2023-05-16T13:28:32.947Z,8.77
2023-05-16T13:31:00.747Z,7.25
2023-05-16T13:33:27.623Z,7.53
2023-05-16T13:35:55.304Z,7.90
2023-05-16T13:38:22.166Z,8.32
2023-05-16T13:40:48.816Z,8.45
2023-05-16T13:43:15.730Z,7.28
2023-05-16T13:45:44.055Z,7.40
2023-05-16T13:48:11.480Z,6.70
2023-05-16T13:50:44.049Z,5.68
2023-05-16T13:53:11.370Z,5.78
2023-05-16T13:55:38.042Z,3.92
2023-05-16T13:58:04.747Z,8.02
2023-05-16T14:00:43.509Z,6.72
2023-05-16T14:03:12.279Z,5.63
2023-05-16T14:05:39.268Z,6.68
2023-05-16T14:08:06.661Z,25.00
2023-05-16T14:10:33.581Z,5.82
2023-05-16T14:13:00.386Z,11.32
2023-05-16T14:15:27.410Z,7.45
2023-05-16T14:17:54.405Z,5.43
2023-05-16T14:20:21.620Z,10.27
2023-05-16T14:22:48.308Z,12.95
2023-05-16T14:25:14.966Z,5.63
2023-05-16T14:27:41.614Z,7.63
2023-05-16T14:30:09.511Z,6.32
2023-05-16T14:32:36.328Z,4.25
2023-05-16T14:35:05.483Z,7.10
2023-05-16T14:37:32.416Z,6.68
2023-05-16T14:40:00.966Z,4.35
2023-05-16T14:42:27.759Z,5.40
2023-05-16T14:44:54.424Z,6.20
2023-05-16T14:47:21.432Z,2.92
2023-05-16T14:49:49.079Z,8.98
2023-05-16T14:52:15.824Z,14.77
2023-05-16T14:54:42.465Z,8.88
2023-05-16T14:57:09.132Z,6.18
2023-05-16T14:59:35.837Z,6.55
2023-05-16T15:02:02.840Z,7.13
2023-05-16T15:04:29.651Z,7.32
2023-05-16T15:06:56.402Z,4.95
2023-05-16T15:09:23.051Z,4.85
2023-05-16T15:11:49.741Z,10.15
2023-05-16T15:14:16.414Z,7.10
2023-05-16T15:16:43.419Z,5.30
2023-05-16T15:19:10.258Z,8.30
2023-05-16T15:21:37.019Z,9.85
2023-05-16T15:24:03.761Z,7.50
2023-05-16T15:26:31.011Z,10.10
2023-05-16T15:28:57.766Z,6.82
2023-05-16T15:31:24.489Z,5.75
2023-05-16T15:33:51.360Z,7.93
2023-05-16T15:36:18.075Z,11.80
2023-05-16T15:38:45.655Z,11.50
2023-05-16T15:41:31.523Z,7.38
2023-05-16T15:44:00.442Z,8.68
2023-05-16T15:46:27.371Z,6.65
2023-05-16T15:48:54.084Z,6.70
2023-05-16T15:51:21.083Z,8.52
2023-05-16T15:53:47.927Z,6.90
2023-05-16T15:56:14.596Z,7.28
2023-05-16T15:58:41.264Z,8.80
2023-05-16T16:01:08.006Z,11.20
2023-05-16T16:03:34.769Z,5.43
2023-05-16T16:06:01.546Z,5.15
2023-05-16T16:08:28.218Z,6.22
2023-05-16T16:10:54.861Z,6.80
2023-05-16T16:13:21.518Z,7.38
2023-05-16T16:15:48.195Z,9.10
2023-05-16T16:18:14.882Z,3.95
2023-05-16T16:20:41.848Z,3.88
2023-05-16T16:23:08.501Z,9.18
2023-05-16T16:25:35.164Z,10.02
2023-05-16T16:28:01.815Z,5.90
2023-05-16T16:30:28.459Z,3.58
2023-05-16T16:32:55.326Z,3.70
2023-05-16T16:35:24.420Z,7.55
2023-05-16T16:38:05.710Z,8.10
2023-05-16T16:40:33.580Z,6.40
2023-05-16T16:43:00.299Z,9.00
2023-05-16T16:45:27.175Z,8.82
2023-05-16T16:47:54.102Z,4.28
2023-05-16T16:50:20.892Z,10.07
2023-05-16T16:52:47.763Z,24.52
2023-05-16T16:55:15.021Z,9.57
2023-05-16T16:57:42.406Z,7.15
2023-05-16T17:00:11.381Z,9.77
2023-05-16T17:02:38.299Z,4.82
2023-05-16T17:05:09.316Z,6.97
2023-05-16T17:07:36.012Z,7.65
2023-05-16T17:10:04.816Z,10.82
2023-05-16T17:12:34.662Z,13.30
2023-05-16T17:15:02.059Z,9.18
2023-05-16T17:17:28.844Z,8.05
2023-05-16T17:19:55.963Z,6.82
2023-05-16T17:22:22.676Z,7.57
2023-05-16T17:24:49.356Z,5.40
2023-05-16T17:27:16.228Z,7.80
2023-05-16T17:29:42.893Z,8.52
2023-05-16T17:32:09.551Z,4.95
2023-05-16T17:34:36.446Z,5.18
2023-05-16T17:37:05.524Z,8.10
2023-05-16T17:39:33.721Z,7.40
2023-05-16T17:42:00.570Z,8.02
2023-05-16T17:44:27.225Z,5.18
2023-05-16T17:46:54.027Z,9.68
2023-05-16T17:49:21.653Z,4.82
2023-05-16T17:51:49.769Z,8.57
2023-05-16T17:54:18.655Z,5.18
2023-05-16T17:56:46.662Z,10.90
2023-05-16T17:59:13.743Z,4.95
2023-05-16T18:01:40.609Z,11.27
2023-05-16T18:04:07.863Z,4.53
2023-05-16T18:06:36.106Z,7.05
2023-05-16T18:09:06.507Z,8.50
2023-05-16T18:11:37.706Z,6.68
2023-05-16T18:14:04.385Z,7.80
2023-05-16T18:16:31.120Z,8.23
2023-05-16T18:18:58.206Z,11.57
2023-05-16T18:21:25.083Z,6.22
2023-05-16T18:23:51.786Z,8.55
2023-05-16T18:26:19.319Z,6.50
2023-05-16T18:28:46.202Z,3.55
2023-05-16T18:31:12.874Z,6.78
2023-05-16T18:33:39.531Z,8.25
2023-05-16T18:36:06.452Z,6.97
2023-05-16T18:38:33.896Z,9.32
2023-05-16T18:41:00.991Z,14.40
2023-05-16T18:43:27.644Z,7.35
2023-05-16T18:45:54.286Z,7.47
2023-05-16T18:48:21.128Z,11.30
2023-05-16T18:50:47.814Z,7.55
2023-05-16T18:53:14.455Z,8.15
2023-05-16T18:55:41.126Z,9.38
2023-05-16T18:58:07.761Z,9.68
2023-05-16T19:00:34.424Z,10.20
2023-05-16T19:03:01.341Z,8.65
2023-05-16T19:05:28.555Z,3.95
2023-05-16T19:07:55.523Z,13.15
2023-05-16T19:10:22.333Z,9.07
2023-05-16T19:12:49.240Z,7.38
2023-05-16T19:15:16.050Z,8.35
2023-05-16T19:17:43.003Z,10.20
2023-05-16T19:20:10.940Z,7.85
2023-05-16T19:22:37.753Z,10.90
2023-05-16T19:25:05.483Z,12.20
2023-05-16T19:27:32.265Z,9.63
2023-05-16T19:29:58.907Z,12.45
2023-05-16T19:32:25.730Z,7.45
2023-05-16T19:34:52.733Z,8.32
2023-05-16T19:37:19.441Z,6.93
2023-05-16T19:39:46.124Z,11.82
2023-05-16T19:42:12.816Z,9.43
2023-05-16T19:44:39.469Z,10.35
2023-05-16T19:47:06.251Z,5.03
2023-05-16T19:49:32.928Z,8.32
2023-05-16T19:51:59.612Z,9.63
2023-05-16T19:54:26.263Z,8.75
2023-05-16T19:56:52.981Z,8.00
2023-05-16T19:59:20.487Z,10.63
2023-05-16T20:01:47.129Z,7.22
2023-05-16T20:04:13.899Z,8.32
2023-05-16T20:06:41.150Z,11.20
2023-05-16T20:09:07.844Z,5.55
2023-05-16T20:11:34.574Z,9.05
2023-05-16T20:14:01.225Z,6.40
2023-05-16T20:16:27.900Z,7.22
2023-05-16T20:18:54.661Z,7.30
2023-05-16T20:21:21.386Z,8.13
2023-05-16T20:23:48.055Z,7.22
2023-05-16T20:26:15.174Z,10.40
2023-05-16T20:28:42.026Z,16.38
2023-05-16T20:31:08.745Z,11.02
2023-05-16T20:33:35.597Z,7.80
2023-05-16T20:36:02.305Z,9.27
2023-05-16T20:38:28.960Z,5.53
2023-05-16T20:40:56.213Z,6.35
2023-05-16T20:43:24.157Z,14.20
2023-05-16T20:45:52.614Z,9.40
2023-05-16T20:48:19.400Z,7.95
2023-05-16T20:50:46.180Z,7.88
2023-05-16T20:53:12.870Z,12.27
2023-05-16T20:55:39.520Z,9.27
2023-05-16T20:58:06.211Z,12.85
2023-05-16T21:00:33.678Z,12.52
2023-05-16T21:03:00.452Z,10.90
2023-05-16T21:05:27.213Z,18.95
2023-05-16T21:07:53.894Z,10.80
2023-05-16T21:10:20.601Z,8.85
2023-05-16T21:12:47.313Z,10.70
2023-05-16T21:15:13.986Z,9.25
2023-05-16T21:17:41.460Z,10.68
2023-05-16T21:20:08.647Z,11.93
2023-05-16T21:22:35.810Z,11.00
2023-05-16T21:25:02.464Z,8.05
2023-05-16T21:27:29.100Z,10.45
2023-05-16T21:29:55.736Z,8.15
2023-05-16T21:32:22.412Z,5.47
2023-05-16T21:34:49.108Z,10.52
2023-05-16T21:37:16.807Z,10.70
2023-05-16T21:39:43.507Z,7.82
2023-05-16T21:42:10.149Z,14.30
2023-05-16T21:44:36.841Z,11.48
2023-05-16T21:47:03.772Z,7.97
2023-05-16T21:49:30.496Z,15.18
2023-05-16T21:51:57.167Z,11.77
2023-05-16T21:54:23.832Z,7.95
2023-05-16T21:56:50.496Z,12.35
2023-05-16T21:59:17.174Z,9.95
2023-05-16T22:01:43.840Z,11.52
2023-05-16T22:04:10.783Z,11.75
2023-05-16T22:06:37.590Z,10.85
2023-05-16T22:09:04.302Z,9.40
2023-05-16T22:11:30.998Z,15.40
2023-05-16T22:13:57.686Z,11.68
2023-05-16T22:16:24.360Z,26.88
2023-05-16T22:18:51.181Z,7.15
2023-05-16T22:21:17.968Z,9.77
2023-05-16T22:23:44.604Z,8.57
2023-05-16T22:26:11.338Z,8.70
2023-05-16T22:28:38.029Z,10.38
2023-05-16T22:31:04.676Z,7.82
2023-05-16T22:33:31.345Z,11.30
2023-05-16T22:35:58.038Z,9.75
2023-05-16T22:38:24.782Z,11.20
2023-05-16T22:40:51.687Z,9.23
2023-05-16T22:43:19.475Z,12.25
2023-05-16T22:45:46.161Z,9.00
2023-05-16T22:48:12.904Z,10.40
2023-05-16T22:50:39.576Z,8.43
2023-05-16T22:53:06.275Z,11.70
2023-05-16T22:55:33.883Z,8.45
2023-05-16T22:58:00.756Z,10.23
2023-05-16T23:00:27.481Z,8.82
2023-05-16T23:02:54.243Z,7.10
2023-05-16T23:05:20.975Z,8.75
2023-05-16T23:07:47.918Z,14.32
2023-05-16T23:10:14.558Z,8.80
2023-05-16T23:12:41.215Z,6.82
2023-05-16T23:15:10.153Z,10.13
2023-05-16T23:17:38.135Z,12.52
2023-05-16T23:20:06.782Z,10.40
2023-05-16T23:22:33.474Z,12.27
2023-05-16T23:25:00.158Z,9.85
2023-05-16T23:27:26.848Z,12.57
2023-05-16T23:29:53.573Z,9.80
2023-05-16T23:32:20.350Z,9.45
2023-05-16T23:34:47.038Z,8.70
2023-05-16T23:37:13.694Z,8.52
2023-05-16T23:39:41.029Z,10.98
2023-05-16T23:42:07.710Z,11.27
2023-05-16T23:44:34.418Z,8.77
2023-05-16T23:47:01.311Z,9.88
2023-05-16T23:49:28.043Z,9.50
2023-05-16T23:51:57.578Z,15.82
2023-05-16T23:54:25.730Z,10.73
2023-05-16T23:56:52.464Z,13.30
2023-05-16T23:59:19.279Z,12.75
